createdAt,value
2023-03-28T00:00:48.323Z,4.84
2023-03-28T00:05:55.101Z,4.80
2023-03-28T00:11:05.728Z,4.79
2023-03-28T00:16:12.746Z,4.72
2023-03-28T00:21:24.206Z,4.64
2023-03-28T00:26:27.134Z,4.65
2023-03-28T00:31:32.072Z,4.67
2023-03-28T00:36:39.660Z,4.55
2023-03-28T00:41:44.162Z,4.51
2023-03-28T00:46:46.820Z,4.28
2023-03-28T00:51:57.833Z,4.20
2023-03-28T00:57:03.034Z,4.21
2023-03-28T01:02:07.110Z,4.22
2023-03-28T01:07:11.206Z,3.92
2023-03-28T01:12:17.306Z,3.18
2023-03-28T01:17:21.089Z,4.20
2023-03-28T01:23:03.815Z,1.92
2023-03-28T01:28:16.305Z,3.99
2023-03-28T01:33:44.391Z,3.53
2023-03-28T01:38:55.760Z,3.97
2023-03-28T01:44:09.599Z,3.94
2023-03-28T01:49:23.115Z,3.80
2023-03-28T01:54:33.151Z,2.44
2023-03-28T01:59:42.675Z,3.77
2023-03-28T02:05:05.393Z,3.50
2023-03-28T02:10:16.162Z,3.84
2023-03-28T02:15:41.939Z,3.51
2023-03-28T02:21:24.511Z,3.64
2023-03-28T02:26:43.120Z,3.63
2023-03-28T02:31:57.916Z,3.14
2023-03-28T02:37:10.477Z,3.00
2023-03-28T02:42:56.127Z,3.50
2023-03-28T02:48:11.803Z,3.48
2023-03-28T02:53:22.233Z,2.79
2023-03-28T02:58:31.626Z,2.76
2023-03-28T03:03:36.371Z,3.20
2023-03-28T03:08:39.195Z,2.94
2023-03-28T03:13:47.425Z,3.15
2023-03-28T03:18:50.742Z,3.29
2023-03-28T03:23:55.897Z,2.58
2023-03-28T03:29:01.418Z,3.20
2023-03-28T03:34:04.900Z,2.48
2023-03-28T03:39:16.205Z,3.22
2023-03-28T03:44:21.202Z,2.97
2023-03-28T03:49:24.030Z,2.83
2023-03-28T03:54:27.286Z,3.11
2023-03-28T03:59:31.694Z,3.20
2023-03-28T04:04:35.053Z,3.26
2023-03-28T04:10:03.161Z,3.22
2023-03-28T04:15:12.755Z,0.49
2023-03-28T04:20:15.445Z,2.80
2023-03-28T04:25:50.716Z,2.98
2023-03-28T04:31:04.295Z,2.57
2023-03-28T04:36:25.849Z,3.05
2023-03-28T04:41:38.858Z,2.95
2023-03-28T04:46:59.240Z,2.67
2023-03-28T04:52:02.097Z,2.35
2023-03-28T04:57:08.085Z,2.78
2023-03-28T05:03:09.754Z,2.75
2023-03-28T05:08:26.171Z,2.51
2023-03-28T05:13:40.546Z,2.64
2023-03-28T05:18:57.313Z,2.90
2023-03-28T05:24:23.697Z,2.77
2023-03-28T05:29:27.658Z,2.75
2023-03-28T05:34:31.060Z,2.55
2023-03-28T05:39:36.204Z,2.85
2023-03-28T05:44:50.375Z,-0.15
2023-03-28T05:50:14.968Z,0.21
2023-03-28T05:55:20.861Z,2.03
2023-03-28T06:00:26.093Z,3.07
2023-03-28T06:05:31.520Z,3.15
2023-03-28T06:10:35.698Z,1.86
2023-03-28T06:15:54.762Z,3.24
2023-03-28T06:21:06.144Z,2.97
2023-03-28T06:26:10.501Z,3.17
2023-03-28T06:31:19.708Z,3.17
2023-03-28T06:36:23.028Z,3.55
2023-03-28T06:41:27.893Z,2.00
2023-03-28T06:46:30.828Z,1.91
2023-03-28T06:51:35.072Z,3.75
2023-03-28T06:56:39.183Z,3.76
2023-03-28T07:01:42.253Z,3.18
2023-03-28T07:06:50.404Z,3.39
2023-03-28T07:11:54.526Z,4.04
2023-03-28T07:16:58.842Z,4.34
2023-03-28T07:22:02.700Z,4.28
2023-03-28T07:27:15.510Z,4.50
2023-03-28T07:32:21.212Z,4.56
2023-03-28T07:37:25.317Z,4.78
2023-03-28T07:42:43.900Z,4.90
2023-03-28T07:48:04.189Z,4.92
2023-03-28T07:53:07.046Z,5.15
2023-03-28T07:58:20.036Z,5.27
2023-03-28T08:03:24.203Z,5.61
2023-03-28T08:08:27.365Z,5.60
2023-03-28T08:14:00.114Z,5.56
2023-03-28T08:19:11.420Z,4.79
2023-03-28T08:24:46.883Z,5.69
2023-03-28T08:29:57.766Z,5.80
2023-03-28T08:35:03.732Z,5.89
2023-03-28T08:40:10.863Z,6.00
2023-03-28T08:45:34.925Z,5.90
2023-03-28T08:50:42.596Z,5.91
2023-03-28T08:55:47.421Z,5.83
2023-03-28T09:00:53.235Z,6.41
2023-03-28T09:06:05.745Z,6.92
2023-03-28T09:11:26.625Z,6.82
2023-03-28T09:16:42.738Z,7.21
2023-03-28T09:22:15.206Z,7.08
2023-03-28T09:27:29.033Z,6.99
2023-03-28T09:32:41.224Z,6.81
2023-03-28T09:37:49.655Z,5.41
2023-03-28T09:43:06.498Z,7.21
2023-03-28T09:48:24.171Z,7.27
2023-03-28T09:53:38.332Z,7.54
2023-03-28T09:58:50.360Z,7.82
2023-03-28T10:04:11.684Z,7.92
2023-03-28T10:09:49.560Z,8.14
2023-03-28T10:14:56.386Z,7.71
2023-03-28T10:20:28.654Z,7.95
2023-03-28T10:25:39.313Z,7.53
2023-03-28T10:30:42.814Z,7.55
2023-03-28T10:35:55.670Z,7.67
2023-03-28T10:41:06.594Z,8.30
2023-03-28T10:46:24.915Z,8.47
2023-03-28T10:51:46.841Z,9.30
2023-03-28T10:56:54.235Z,8.83
2023-03-28T11:02:17.758Z,8.71
2023-03-28T11:07:29.422Z,8.84
2023-03-28T11:13:08.443Z,8.27
2023-03-28T11:18:29.995Z,9.10
2023-03-28T11:23:46.454Z,8.67
2023-03-28T11:29:33.198Z,8.69
2023-03-28T11:34:51.782Z,9.02
2023-03-28T11:40:06.088Z,9.23
2023-03-28T11:45:53.350Z,9.25
2023-03-28T11:51:07.470Z,9.30
2023-03-28T11:56:48.360Z,9.09
2023-03-28T12:02:05.199Z,9.34
2023-03-28T12:07:18.802Z,9.18
2023-03-28T12:12:32.206Z,6.67
2023-03-28T12:17:40.353Z,9.72
2023-03-28T12:22:57.687Z,8.95
2023-03-28T12:28:28.701Z,10.05
2023-03-28T12:33:43.312Z,10.37
2023-03-28T12:39:01.618Z,10.22
2023-03-28T12:44:15.316Z,10.31
2023-03-28T12:49:33.015Z,10.00
2023-03-28T12:55:01.418Z,10.52
2023-03-28T13:00:37.279Z,10.57
2023-03-28T13:06:12.767Z,10.63
2023-03-28T13:11:36.892Z,10.58
2023-03-28T13:16:47.632Z,10.51
2023-03-28T13:21:57.454Z,10.05
2023-03-28T13:27:04.448Z,9.21
2023-03-28T13:32:16.842Z,9.14
2023-03-28T13:37:23.504Z,9.09
2023-03-28T13:42:32.482Z,9.58
2023-03-28T13:47:41.963Z,10.65
2023-03-28T13:52:44.968Z,10.78
2023-03-28T13:57:50.303Z,10.94
2023-03-28T14:03:04.222Z,10.40
2023-03-28T14:08:39.919Z,10.28
2023-03-28T14:13:44.199Z,11.04
2023-03-28T14:18:54.631Z,8.65
2023-03-28T14:24:02.228Z,11.58
2023-03-28T14:29:11.311Z,10.67
2023-03-28T14:34:34.995Z,11.39
2023-03-28T14:39:47.305Z,9.84
2023-03-28T14:44:53.019Z,10.74
2023-03-28T14:49:58.553Z,11.50
2023-03-28T14:55:02.477Z,11.09
2023-03-28T15:00:15.156Z,10.16
2023-03-28T15:05:23.012Z,10.82
2023-03-28T15:10:27.017Z,9.60
2023-03-28T15:15:44.306Z,10.74
2023-03-28T15:20:52.680Z,10.34
2023-03-28T15:25:57.134Z,9.87
2023-03-28T15:31:04.811Z,11.28
2023-03-28T15:36:16.483Z,11.37
2023-03-28T15:41:23.609Z,11.45
2023-03-28T15:46:31.887Z,10.56
2023-03-28T15:51:48.967Z,10.79
2023-03-28T15:56:52.415Z,11.41
2023-03-28T16:02:21.143Z,10.06
2023-03-28T16:07:55.804Z,10.62
2023-03-28T16:13:08.575Z,9.75
2023-03-28T16:36:14.138Z,10.85
2023-03-28T16:41:40.394Z,9.12
2023-03-28T16:46:51.991Z,10.16
2023-03-28T16:58:08.387Z,10.40
2023-03-28T17:03:42.258Z,8.82
2023-03-28T17:08:54.786Z,9.61
2023-03-28T17:14:31.928Z,8.94
2023-03-28T17:20:32.821Z,9.56
2023-03-28T17:28:22.746Z,10.54
2023-03-28T17:33:16.218Z,10.38
2023-03-28T17:38:29.281Z,9.80
2023-03-28T17:43:33.901Z,10.31
2023-03-28T17:48:39.998Z,8.45
2023-03-28T17:53:47.839Z,9.07
2023-03-28T17:58:52.036Z,8.28
2023-03-28T18:03:57.276Z,10.15
2023-03-28T18:09:45.302Z,7.65
2023-03-28T18:28:34.873Z,7.67
2023-03-28T18:33:49.002Z,8.90
2023-03-28T18:39:42.753Z,5.81
2023-03-28T18:44:56.702Z,8.74
2023-03-28T18:50:13.198Z,8.13
2023-03-28T18:55:44.803Z,6.70
2023-03-28T19:01:03.922Z,6.55
2023-03-28T19:06:36.989Z,5.87
2023-03-28T19:18:56.516Z,5.76
2023-03-28T19:24:18.655Z,7.25
2023-03-28T19:30:11.382Z,7.82
2023-03-28T19:35:28.170Z,7.23
2023-03-28T19:47:24.264Z,7.29
2023-03-28T19:52:36.160Z,5.86
2023-03-28T19:57:49.683Z,7.31
2023-03-28T20:03:52.210Z,8.14
2023-03-28T20:09:27.799Z,5.87
2023-03-28T20:14:33.562Z,7.90
2023-03-28T20:19:41.600Z,8.07
2023-03-28T20:24:48.850Z,5.64
2023-03-28T20:30:01.519Z,8.02
2023-03-28T20:35:07.777Z,7.71
2023-03-28T20:40:11.770Z,7.98
2023-03-28T20:45:22.291Z,7.18
2023-03-28T20:50:36.563Z,6.76
2023-03-28T20:55:43.372Z,7.99
2023-03-28T21:00:53.632Z,7.75
2023-03-28T21:06:02.115Z,7.22
2023-03-28T21:11:09.211Z,5.90
2023-03-28T21:16:14.767Z,5.96
2023-03-28T21:21:20.623Z,7.56
2023-03-28T21:26:25.452Z,7.86
2023-03-28T21:31:29.933Z,7.61
2023-03-28T21:36:34.789Z,7.80
2023-03-28T21:41:45.443Z,7.75
2023-03-28T21:46:48.166Z,7.91
2023-03-28T21:51:59.757Z,7.94
2023-03-28T21:57:06.974Z,7.72
2023-03-28T22:02:09.813Z,7.92
2023-03-28T22:07:17.428Z,7.57
2023-03-28T22:12:28.758Z,7.68
2023-03-28T22:17:34.848Z,7.62
2023-03-28T22:22:42.513Z,8.01
2023-03-28T22:27:46.430Z,7.77
2023-03-28T22:32:49.877Z,7.77
2023-03-28T22:37:55.360Z,7.95
2023-03-28T22:42:58.073Z,7.97
2023-03-28T22:48:03.119Z,7.77
2023-03-28T22:53:07.475Z,7.90
2023-03-28T22:58:12.533Z,7.89
2023-03-28T23:03:16.809Z,7.66
2023-03-28T23:08:21.042Z,7.95
2023-03-28T23:13:23.750Z,8.02
2023-03-28T23:18:26.551Z,7.45
2023-03-28T23:23:32.154Z,7.95
2023-03-28T23:28:38.119Z,7.39
2023-03-28T23:33:40.879Z,7.63
2023-03-28T23:38:44.950Z,8.00
2023-03-28T23:43:47.587Z,7.92
2023-03-28T23:48:50.578Z,7.84
2023-03-28T23:53:54.576Z,7.96
2023-03-28T23:58:57.296Z,7.83
